sensor_id;sensor_type;location;lat;lon;timestamp;temperature;humidity
7502;DHT22;3792;47.740;7.606;2024-03-02T00:01:37;7.70;99.90
7502;DHT22;3792;47.740;7.606;2024-03-02T00:04:05;7.70;99.90
7502;DHT22;3792;47.740;7.606;2024-03-02T00:06:33;7.80;99.90
7502;DHT22;3792;47.740;7.606;2024-03-02T00:09:00;7.70;99.90
7502;DHT22;3792;47.740;7.606;2024-03-02T00:11:27;7.80;99.90
7502;DHT22;3792;47.740;7.606;2024-03-02T00:13:54;7.80;99.90
7502;DHT22;3792;47.740;7.606;2024-03-02T00:16:21;7.80;99.90
7502;DHT22;3792;47.740;7.606;2024-03-02T00:18:51;7.80;99.90
7502;DHT22;3792;47.740;7.606;2024-03-02T00:21:18;7.80;99.90
7502;DHT22;3792;47.740;7.606;2024-03-02T00:23:48;7.80;99.90
7502;DHT22;3792;47.740;7.606;2024-03-02T00:26:17;7.80;99.90
7502;DHT22;3792;47.740;7.606;2024-03-02T00:28:44;7.70;99.90
7502;DHT22;3792;47.740;7.606;2024-03-02T00:31:13;7.70;99.90
7502;DHT22;3792;47.740;7.606;2024-03-02T00:33:41;7.70;99.90
7502;DHT22;3792;47.740;7.606;2024-03-02T00:36:11;7.70;99.90
7502;DHT22;3792;47.740;7.606;2024-03-02T00:38:46;7.80;99.90
7502;DHT22;3792;47.740;7.606;2024-03-02T00:41:17;7.80;99.90
7502;DHT22;3792;47.740;7.606;2024-03-02T00:43:56;7.80;99.90
7502;DHT22;3792;47.740;7.606;2024-03-02T00:46:24;7.80;99.90
7502;DHT22;3792;47.740;7.606;2024-03-02T00:48:53;7.70;99.90
7502;DHT22;3792;47.740;7.606;2024-03-02T00:51:23;7.70;99.90
7502;DHT22;3792;47.740;7.606;2024-03-02T00:53:52;7.60;99.90
7502;DHT22;3792;47.740;7.606;2024-03-02T00:56:22;7.60;99.90
7502;DHT22;3792;47.740;7.606;2024-03-02T00:58:49;7.50;99.90
7502;DHT22;3792;47.740;7.606;2024-03-02T01:01:16;7.50;99.90
7502;DHT22;3792;47.740;7.606;2024-03-02T01:03:44;7.40;99.90
7502;DHT22;3792;47.740;7.606;2024-03-02T01:06:11;7.50;99.90
7502;DHT22;3792;47.740;7.606;2024-03-02T01:08:39;7.50;99.90
7502;DHT22;3792;47.740;7.606;2024-03-02T01:11:07;7.50;99.90
7502;DHT22;3792;47.740;7.606;2024-03-02T01:13:34;7.40;99.90
7502;DHT22;3792;47.740;7.606;2024-03-02T01:16:01;7.40;99.90
7502;DHT22;3792;47.740;7.606;2024-03-02T01:18:28;7.40;99.90
7502;DHT22;3792;47.740;7.606;2024-03-02T01:20:56;7.40;99.90
7502;DHT22;3792;47.740;7.606;2024-03-02T01:23:23;7.40;99.90
7502;DHT22;3792;47.740;7.606;2024-03-02T01:25:52;7.40;99.90
7502;DHT22;3792;47.740;7.606;2024-03-02T01:28:19;7.30;99.90
7502;DHT22;3792;47.740;7.606;2024-03-02T01:30:48;7.40;99.90
7502;DHT22;3792;47.740;7.606;2024-03-02T01:33:16;7.40;99.90
7502;DHT22;3792;47.740;7.606;2024-03-02T01:35:43;7.40;99.90
7502;DHT22;3792;47.740;7.606;2024-03-02T01:38:10;7.40;99.90
7502;DHT22;3792;47.740;7.606;2024-03-02T01:40:37;7.50;99.90
7502;DHT22;3792;47.740;7.606;2024-03-02T01:43:06;7.50;99.90
7502;DHT22;3792;47.740;7.606;2024-03-02T01:45:34;7.50;99.90
7502;DHT22;3792;47.740;7.606;2024-03-02T01:48:03;7.50;99.90
7502;DHT22;3792;47.740;7.606;2024-03-02T01:50:32;7.40;99.90
7502;DHT22;3792;47.740;7.606;2024-03-02T01:53:00;7.50;99.90
7502;DHT22;3792;47.740;7.606;2024-03-02T01:55:27;7.50;99.90
7502;DHT22;3792;47.740;7.606;2024-03-02T01:57:55;7.40;99.90
7502;DHT22;3792;47.740;7.606;2024-03-02T02:00:25;7.40;99.90
7502;DHT22;3792;47.740;7.606;2024-03-02T02:02:52;7.40;99.90
7502;DHT22;3792;47.740;7.606;2024-03-02T02:05:19;7.40;99.90
7502;DHT22;3792;47.740;7.606;2024-03-02T02:07:46;7.40;99.90
7502;DHT22;3792;47.740;7.606;2024-03-02T02:10:14;7.40;99.90
7502;DHT22;3792;47.740;7.606;2024-03-02T02:12:41;7.40;99.90
7502;DHT22;3792;47.740;7.606;2024-03-02T02:15:26;7.40;99.90
7502;DHT22;3792;47.740;7.606;2024-03-02T02:17:53;7.30;99.90
7502;DHT22;3792;47.740;7.606;2024-03-02T02:20:21;7.30;99.90
7502;DHT22;3792;47.740;7.606;2024-03-02T02:22:57;7.40;99.90
7502;DHT22;3792;47.740;7.606;2024-03-02T02:25:25;7.30;99.90
7502;DHT22;3792;47.740;7.606;2024-03-02T02:27:52;7.30;99.90
7502;DHT22;3792;47.740;7.606;2024-03-02T02:30:20;7.30;99.90
7502;DHT22;3792;47.740;7.606;2024-03-02T02:32:47;7.30;99.90
7502;DHT22;3792;47.740;7.606;2024-03-02T02:35:14;7.30;99.90
7502;DHT22;3792;47.740;7.606;2024-03-02T02:37:42;7.30;99.90
7502;DHT22;3792;47.740;7.606;2024-03-02T02:40:12;7.30;99.90
7502;DHT22;3792;47.740;7.606;2024-03-02T02:42:39;7.30;99.90
7502;DHT22;3792;47.740;7.606;2024-03-02T02:45:07;7.30;99.90
7502;DHT22;3792;47.740;7.606;2024-03-02T02:47:34;7.30;99.90
7502;DHT22;3792;47.740;7.606;2024-03-02T02:50:02;7.30;99.90
7502;DHT22;3792;47.740;7.606;2024-03-02T02:52:32;7.40;99.90
7502;DHT22;3792;47.740;7.606;2024-03-02T02:55:05;7.40;99.90
7502;DHT22;3792;47.740;7.606;2024-03-02T02:57:34;7.40;99.90
7502;DHT22;3792;47.740;7.606;2024-03-02T03:00:06;7.40;99.90
7502;DHT22;3792;47.740;7.606;2024-03-02T03:02:37;7.40;99.90
7502;DHT22;3792;47.740;7.606;2024-03-02T03:05:05;7.50;99.90
7502;DHT22;3792;47.740;7.606;2024-03-02T03:07:33;7.60;99.90
7502;DHT22;3792;47.740;7.606;2024-03-02T03:10:01;7.70;99.90
7502;DHT22;3792;47.740;7.606;2024-03-02T03:12:29;7.70;99.90
7502;DHT22;3792;47.740;7.606;2024-03-02T03:14:58;7.70;99.90
7502;DHT22;3792;47.740;7.606;2024-03-02T03:17:25;7.70;99.90
7502;DHT22;3792;47.740;7.606;2024-03-02T03:19:52;7.70;99.90
7502;DHT22;3792;47.740;7.606;2024-03-02T03:22:20;7.60;99.90
7502;DHT22;3792;47.740;7.606;2024-03-02T03:24:47;7.60;99.90
7502;DHT22;3792;47.740;7.606;2024-03-02T03:27:14;7.70;99.90
7502;DHT22;3792;47.740;7.606;2024-03-02T03:29:41;7.70;99.90
7502;DHT22;3792;47.740;7.606;2024-03-02T03:32:09;7.70;99.90
7502;DHT22;3792;47.740;7.606;2024-03-02T03:34:36;7.60;99.90
7502;DHT22;3792;47.740;7.606;2024-03-02T03:37:04;7.70;99.90
7502;DHT22;3792;47.740;7.606;2024-03-02T03:39:31;7.80;99.90
7502;DHT22;3792;47.740;7.606;2024-03-02T03:41:58;7.90;99.90
7502;DHT22;3792;47.740;7.606;2024-03-02T03:44:25;8.00;99.90
7502;DHT22;3792;47.740;7.606;2024-03-02T03:46:52;8.00;99.90
7502;DHT22;3792;47.740;7.606;2024-03-02T03:49:20;7.90;99.90
7502;DHT22;3792;47.740;7.606;2024-03-02T03:51:47;7.90;99.90
7502;DHT22;3792;47.740;7.606;2024-03-02T03:54:15;7.80;99.90
7502;DHT22;3792;47.740;7.606;2024-03-02T03:56:42;7.80;99.90
7502;DHT22;3792;47.740;7.606;2024-03-02T03:59:09;7.80;99.90
7502;DHT22;3792;47.740;7.606;2024-03-02T04:01:36;7.80;99.90
7502;DHT22;3792;47.740;7.606;2024-03-02T04:04:03;7.70;99.90
7502;DHT22;3792;47.740;7.606;2024-03-02T04:06:31;7.70;99.90
7502;DHT22;3792;47.740;7.606;2024-03-02T04:08:59;7.60;99.90
7502;DHT22;3792;47.740;7.606;2024-03-02T04:11:26;7.70;99.90
7502;DHT22;3792;47.740;7.606;2024-03-02T04:13:53;7.80;99.90
7502;DHT22;3792;47.740;7.606;2024-03-02T04:16:20;7.80;99.90
7502;DHT22;3792;47.740;7.606;2024-03-02T04:18:47;7.90;99.90
7502;DHT22;3792;47.740;7.606;2024-03-02T04:21:14;7.90;99.90
7502;DHT22;3792;47.740;7.606;2024-03-02T04:23:42;7.90;99.90
7502;DHT22;3792;47.740;7.606;2024-03-02T04:26:09;7.80;99.90
7502;DHT22;3792;47.740;7.606;2024-03-02T04:28:36;7.90;99.90
7502;DHT22;3792;47.740;7.606;2024-03-02T04:31:03;7.80;99.90
7502;DHT22;3792;47.740;7.606;2024-03-02T04:33:30;7.70;99.90
7502;DHT22;3792;47.740;7.606;2024-03-02T04:35:57;7.80;99.90
7502;DHT22;3792;47.740;7.606;2024-03-02T04:38:24;7.90;99.90
7502;DHT22;3792;47.740;7.606;2024-03-02T04:40:52;7.90;99.90
7502;DHT22;3792;47.740;7.606;2024-03-02T04:43:19;8.00;99.90
7502;DHT22;3792;47.740;7.606;2024-03-02T04:45:46;8.10;99.90
7502;DHT22;3792;47.740;7.606;2024-03-02T04:48:13;8.10;99.90
7502;DHT22;3792;47.740;7.606;2024-03-02T04:50:40;8.10;99.90
7502;DHT22;3792;47.740;7.606;2024-03-02T04:53:07;8.10;99.90
7502;DHT22;3792;47.740;7.606;2024-03-02T04:55:34;8.00;99.90
7502;DHT22;3792;47.740;7.606;2024-03-02T04:58:47;8.00;99.90
7502;DHT22;3792;47.740;7.606;2024-03-02T05:01:14;8.00;99.90
7502;DHT22;3792;47.740;7.606;2024-03-02T05:03:43;8.10;99.90
7502;DHT22;3792;47.740;7.606;2024-03-02T05:06:10;8.10;99.90
7502;DHT22;3792;47.740;7.606;2024-03-02T05:08:37;8.10;99.90
7502;DHT22;3792;47.740;7.606;2024-03-02T05:11:04;8.00;99.90
7502;DHT22;3792;47.740;7.606;2024-03-02T05:13:47;8.00;99.90
7502;DHT22;3792;47.740;7.606;2024-03-02T05:16:14;8.00;99.90
7502;DHT22;3792;47.740;7.606;2024-03-02T05:18:41;8.00;99.90
7502;DHT22;3792;47.740;7.606;2024-03-02T05:21:08;8.00;99.90
7502;DHT22;3792;47.740;7.606;2024-03-02T05:23:35;8.00;99.90
7502;DHT22;3792;47.740;7.606;2024-03-02T05:26:03;8.00;99.90
7502;DHT22;3792;47.740;7.606;2024-03-02T05:28:30;8.00;99.90
7502;DHT22;3792;47.740;7.606;2024-03-02T05:30:58;8.00;99.90
7502;DHT22;3792;47.740;7.606;2024-03-02T05:33:25;8.10;99.90
7502;DHT22;3792;47.740;7.606;2024-03-02T05:35:52;8.10;99.90
7502;DHT22;3792;47.740;7.606;2024-03-02T05:38:19;8.00;99.90
7502;DHT22;3792;47.740;7.606;2024-03-02T05:40:47;8.10;99.90
7502;DHT22;3792;47.740;7.606;2024-03-02T05:43:14;8.10;99.90
7502;DHT22;3792;47.740;7.606;2024-03-02T05:45:41;8.10;99.90
7502;DHT22;3792;47.740;7.606;2024-03-02T05:48:10;8.20;99.90
7502;DHT22;3792;47.740;7.606;2024-03-02T05:50:37;8.20;99.90
7502;DHT22;3792;47.740;7.606;2024-03-02T05:53:04;8.30;99.90
7502;DHT22;3792;47.740;7.606;2024-03-02T05:55:31;8.20;99.90
7502;DHT22;3792;47.740;7.606;2024-03-02T05:57:58;8.30;99.90
7502;DHT22;3792;47.740;7.606;2024-03-02T06:00:42;8.30;99.90
7502;DHT22;3792;47.740;7.606;2024-03-02T06:03:10;8.30;99.90
7502;DHT22;3792;47.740;7.606;2024-03-02T06:05:37;8.30;99.90
7502;DHT22;3792;47.740;7.606;2024-03-02T06:08:05;8.30;99.90
7502;DHT22;3792;47.740;7.606;2024-03-02T06:10:32;8.20;99.90
7502;DHT22;3792;47.740;7.606;2024-03-02T06:12:59;8.20;99.90
7502;DHT22;3792;47.740;7.606;2024-03-02T06:15:26;8.30;99.90
7502;DHT22;3792;47.740;7.606;2024-03-02T06:17:53;8.30;99.90
7502;DHT22;3792;47.740;7.606;2024-03-02T06:20:21;8.20;99.90
7502;DHT22;3792;47.740;7.606;2024-03-02T06:22:48;8.30;99.90
7502;DHT22;3792;47.740;7.606;2024-03-02T06:25:15;8.30;99.90
7502;DHT22;3792;47.740;7.606;2024-03-02T06:27:42;8.30;99.90
7502;DHT22;3792;47.740;7.606;2024-03-02T06:30:10;8.20;99.90
7502;DHT22;3792;47.740;7.606;2024-03-02T06:32:38;8.20;99.90
7502;DHT22;3792;47.740;7.606;2024-03-02T06:35:05;8.20;99.90
7502;DHT22;3792;47.740;7.606;2024-03-02T06:37:37;8.20;99.90
7502;DHT22;3792;47.740;7.606;2024-03-02T06:40:06;8.10;99.90
7502;DHT22;3792;47.740;7.606;2024-03-02T06:42:33;8.20;99.90
7502;DHT22;3792;47.740;7.606;2024-03-02T06:45:00;8.10;99.90
7502;DHT22;3792;47.740;7.606;2024-03-02T06:47:27;8.00;99.90
7502;DHT22;3792;47.740;7.606;2024-03-02T06:49:54;8.00;99.90
7502;DHT22;3792;47.740;7.606;2024-03-02T06:52:23;8.10;99.90
7502;DHT22;3792;47.740;7.606;2024-03-02T06:54:51;8.10;99.90
7502;DHT22;3792;47.740;7.606;2024-03-02T06:57:18;8.20;99.90
7502;DHT22;3792;47.740;7.606;2024-03-02T06:59:46;8.30;99.90
7502;DHT22;3792;47.740;7.606;2024-03-02T07:02:15;8.40;99.90
7502;DHT22;3792;47.740;7.606;2024-03-02T07:04:42;8.50;99.90
7502;DHT22;3792;47.740;7.606;2024-03-02T07:07:10;8.60;99.90
7502;DHT22;3792;47.740;7.606;2024-03-02T07:09:38;8.70;99.90
7502;DHT22;3792;47.740;7.606;2024-03-02T07:12:07;8.90;99.90
7502;DHT22;3792;47.740;7.606;2024-03-02T07:14:36;9.00;99.90
7502;DHT22;3792;47.740;7.606;2024-03-02T07:17:37;9.10;99.90
7502;DHT22;3792;47.740;7.606;2024-03-02T07:20:05;9.00;99.90
7502;DHT22;3792;47.740;7.606;2024-03-02T07:22:33;9.10;99.90
7502;DHT22;3792;47.740;7.606;2024-03-02T07:25:00;9.10;99.90
7502;DHT22;3792;47.740;7.606;2024-03-02T07:27:31;9.10;99.90
7502;DHT22;3792;47.740;7.606;2024-03-02T07:29:59;9.20;99.90
7502;DHT22;3792;47.740;7.606;2024-03-02T07:32:27;9.30;99.90
7502;DHT22;3792;47.740;7.606;2024-03-02T07:34:56;9.40;99.90
7502;DHT22;3792;47.740;7.606;2024-03-02T07:37:24;9.50;99.90
7502;DHT22;3792;47.740;7.606;2024-03-02T07:39:54;9.40;99.90
7502;DHT22;3792;47.740;7.606;2024-03-02T07:42:22;9.50;99.90
7502;DHT22;3792;47.740;7.606;2024-03-02T07:44:51;9.50;99.90
7502;DHT22;3792;47.740;7.606;2024-03-02T07:47:18;9.70;99.90
7502;DHT22;3792;47.740;7.606;2024-03-02T07:49:45;9.80;99.90
7502;DHT22;3792;47.740;7.606;2024-03-02T07:52:13;9.80;99.90
7502;DHT22;3792;47.740;7.606;2024-03-02T07:54:41;10.00;99.90
7502;DHT22;3792;47.740;7.606;2024-03-02T07:57:09;10.00;99.90
7502;DHT22;3792;47.740;7.606;2024-03-02T07:59:37;10.00;99.90
7502;DHT22;3792;47.740;7.606;2024-03-02T08:02:06;10.10;99.90
7502;DHT22;3792;47.740;7.606;2024-03-02T08:04:33;10.20;99.90
7502;DHT22;3792;47.740;7.606;2024-03-02T08:07:02;10.20;99.90
7502;DHT22;3792;47.740;7.606;2024-03-02T08:09:29;10.30;99.90
7502;DHT22;3792;47.740;7.606;2024-03-02T08:11:56;10.40;99.90
7502;DHT22;3792;47.740;7.606;2024-03-02T08:14:23;10.60;99.90
7502;DHT22;3792;47.740;7.606;2024-03-02T08:16:51;10.70;99.90
7502;DHT22;3792;47.740;7.606;2024-03-02T08:19:19;10.80;99.90
7502;DHT22;3792;47.740;7.606;2024-03-02T08:21:46;10.80;99.90
7502;DHT22;3792;47.740;7.606;2024-03-02T08:24:13;10.90;99.90
7502;DHT22;3792;47.740;7.606;2024-03-02T08:26:40;10.90;99.90
7502;DHT22;3792;47.740;7.606;2024-03-02T08:29:07;10.90;99.90
7502;DHT22;3792;47.740;7.606;2024-03-02T08:31:34;10.90;99.90
7502;DHT22;3792;47.740;7.606;2024-03-02T08:34:02;10.90;99.90
7502;DHT22;3792;47.740;7.606;2024-03-02T08:36:30;10.90;99.90
7502;DHT22;3792;47.740;7.606;2024-03-02T08:38:57;10.90;99.90
7502;DHT22;3792;47.740;7.606;2024-03-02T08:41:24;10.80;99.90
7502;DHT22;3792;47.740;7.606;2024-03-02T08:43:51;10.80;99.90
7502;DHT22;3792;47.740;7.606;2024-03-02T08:46:18;10.90;99.90
7502;DHT22;3792;47.740;7.606;2024-03-02T08:48:45;10.90;99.90
7502;DHT22;3792;47.740;7.606;2024-03-02T08:51:12;10.90;99.90
7502;DHT22;3792;47.740;7.606;2024-03-02T08:53:41;10.90;99.90
7502;DHT22;3792;47.740;7.606;2024-03-02T08:56:09;11.00;99.90
7502;DHT22;3792;47.740;7.606;2024-03-02T08:58:37;11.10;99.90
7502;DHT22;3792;47.740;7.606;2024-03-02T09:01:04;11.10;99.90
7502;DHT22;3792;47.740;7.606;2024-03-02T09:03:32;11.10;99.90
7502;DHT22;3792;47.740;7.606;2024-03-02T09:06:00;11.20;99.90
7502;DHT22;3792;47.740;7.606;2024-03-02T09:08:27;11.20;99.90
7502;DHT22;3792;47.740;7.606;2024-03-02T09:10:56;11.20;99.90
7502;DHT22;3792;47.740;7.606;2024-03-02T09:13:23;11.30;99.90
7502;DHT22;3792;47.740;7.606;2024-03-02T09:15:50;11.30;99.90
7502;DHT22;3792;47.740;7.606;2024-03-02T09:18:18;11.40;99.90
7502;DHT22;3792;47.740;7.606;2024-03-02T09:20:45;11.30;99.90
7502;DHT22;3792;47.740;7.606;2024-03-02T09:23:12;11.40;99.90
7502;DHT22;3792;47.740;7.606;2024-03-02T09:25:39;11.40;99.90
7502;DHT22;3792;47.740;7.606;2024-03-02T09:28:08;11.20;99.90
7502;DHT22;3792;47.740;7.606;2024-03-02T09:30:35;10.90;99.90
7502;DHT22;3792;47.740;7.606;2024-03-02T09:33:04;10.80;99.90
7502;DHT22;3792;47.740;7.606;2024-03-02T09:35:31;10.80;99.90
7502;DHT22;3792;47.740;7.606;2024-03-02T09:37:58;10.70;99.90
7502;DHT22;3792;47.740;7.606;2024-03-02T09:40:25;10.80;99.90
7502;DHT22;3792;47.740;7.606;2024-03-02T09:42:54;10.90;99.90
7502;DHT22;3792;47.740;7.606;2024-03-02T09:45:24;10.90;99.90
7502;DHT22;3792;47.740;7.606;2024-03-02T09:47:52;10.80;99.90
7502;DHT22;3792;47.740;7.606;2024-03-02T09:50:19;10.80;99.90
7502;DHT22;3792;47.740;7.606;2024-03-02T09:52:48;10.70;99.90
7502;DHT22;3792;47.740;7.606;2024-03-02T09:55:16;10.70;99.90
7502;DHT22;3792;47.740;7.606;2024-03-02T09:57:45;10.70;99.90
7502;DHT22;3792;47.740;7.606;2024-03-02T10:00:15;10.80;99.90
7502;DHT22;3792;47.740;7.606;2024-03-02T10:02:44;11.00;99.90
7502;DHT22;3792;47.740;7.606;2024-03-02T10:05:23;11.20;99.90
7502;DHT22;3792;47.740;7.606;2024-03-02T10:07:59;11.50;99.90
7502;DHT22;3792;47.740;7.606;2024-03-02T10:10:35;11.70;99.90
7502;DHT22;3792;47.740;7.606;2024-03-02T10:13:06;11.70;99.90
7502;DHT22;3792;47.740;7.606;2024-03-02T10:15:34;11.80;99.90
7502;DHT22;3792;47.740;7.606;2024-03-02T10:18:05;11.80;99.90
7502;DHT22;3792;47.740;7.606;2024-03-02T10:20:32;11.90;99.90
7502;DHT22;3792;47.740;7.606;2024-03-02T10:23:10;11.90;99.90
7502;DHT22;3792;47.740;7.606;2024-03-02T10:25:37;12.10;99.90
7502;DHT22;3792;47.740;7.606;2024-03-02T10:28:04;12.10;99.90
7502;DHT22;3792;47.740;7.606;2024-03-02T10:30:33;12.20;99.90
7502;DHT22;3792;47.740;7.606;2024-03-02T10:33:01;12.30;99.90
7502;DHT22;3792;47.740;7.606;2024-03-02T10:35:31;12.30;99.90
7502;DHT22;3792;47.740;7.606;2024-03-02T10:37:59;12.40;99.90
7502;DHT22;3792;47.740;7.606;2024-03-02T10:40:27;12.50;99.90
7502;DHT22;3792;47.740;7.606;2024-03-02T10:42:54;12.60;99.90
7502;DHT22;3792;47.740;7.606;2024-03-02T10:45:21;12.60;99.90
7502;DHT22;3792;47.740;7.606;2024-03-02T10:47:50;12.60;99.90
7502;DHT22;3792;47.740;7.606;2024-03-02T10:50:17;12.80;99.90
7502;DHT22;3792;47.740;7.606;2024-03-02T10:52:46;12.80;99.90
7502;DHT22;3792;47.740;7.606;2024-03-02T10:55:36;12.90;99.90
7502;DHT22;3792;47.740;7.606;2024-03-02T10:58:12;13.00;99.90
7502;DHT22;3792;47.740;7.606;2024-03-02T11:00:41;13.20;99.90
7502;DHT22;3792;47.740;7.606;2024-03-02T11:03:12;13.40;99.90
7502;DHT22;3792;47.740;7.606;2024-03-02T11:05:43;13.60;99.90
7502;DHT22;3792;47.740;7.606;2024-03-02T11:08:14;14.10;99.00
7502;DHT22;3792;47.740;7.606;2024-03-02T11:10:49;14.80;98.40
7502;DHT22;3792;47.740;7.606;2024-03-02T11:13:22;15.30;97.70
7502;DHT22;3792;47.740;7.606;2024-03-02T11:15:54;15.70;96.70
7502;DHT22;3792;47.740;7.606;2024-03-02T11:18:22;15.80;96.80
7502;DHT22;3792;47.740;7.606;2024-03-02T11:20:49;16.00;96.20
7502;DHT22;3792;47.740;7.606;2024-03-02T11:23:18;16.40;95.80
7502;DHT22;3792;47.740;7.606;2024-03-02T11:25:45;16.40;95.90
7502;DHT22;3792;47.740;7.606;2024-03-02T11:28:13;16.90;95.60
7502;DHT22;3792;47.740;7.606;2024-03-02T11:30:50;17.10;94.50
7502;DHT22;3792;47.740;7.606;2024-03-02T11:33:26;17.10;94.70
7502;DHT22;3792;47.740;7.606;2024-03-02T11:35:56;17.00;94.40
7502;DHT22;3792;47.740;7.606;2024-03-02T11:38:33;16.90;94.00
7502;DHT22;3792;47.740;7.606;2024-03-02T11:41:06;16.60;93.60
7502;DHT22;3792;47.740;7.606;2024-03-02T11:43:37;16.00;94.20
7502;DHT22;3792;47.740;7.606;2024-03-02T11:46:06;15.70;94.10
7502;DHT22;3792;47.740;7.606;2024-03-02T11:48:35;15.20;94.50
7502;DHT22;3792;47.740;7.606;2024-03-02T11:51:04;14.80;95.20
7502;DHT22;3792;47.740;7.606;2024-03-02T11:53:33;14.80;96.00
7502;DHT22;3792;47.740;7.606;2024-03-02T11:56:02;14.70;95.10
7502;DHT22;3792;47.740;7.606;2024-03-02T11:58:31;14.70;95.60
7502;DHT22;3792;47.740;7.606;2024-03-02T12:00:59;14.60;94.90
7502;DHT22;3792;47.740;7.606;2024-03-02T12:03:28;14.80;95.30
7502;DHT22;3792;47.740;7.606;2024-03-02T12:05:55;14.90;94.30
7502;DHT22;3792;47.740;7.606;2024-03-02T12:08:22;14.90;94.70
7502;DHT22;3792;47.740;7.606;2024-03-02T12:10:58;15.10;94.00
7502;DHT22;3792;47.740;7.606;2024-03-02T12:13:25;15.60;94.20
7502;DHT22;3792;47.740;7.606;2024-03-02T12:15:54;15.50;92.50
7502;DHT22;3792;47.740;7.606;2024-03-02T12:18:22;15.50;92.20
7502;DHT22;3792;47.740;7.606;2024-03-02T12:20:49;15.50;91.80
7502;DHT22;3792;47.740;7.606;2024-03-02T12:23:18;15.60;91.70
7502;DHT22;3792;47.740;7.606;2024-03-02T12:25:46;15.40;92.10
7502;DHT22;3792;47.740;7.606;2024-03-02T12:28:15;15.40;91.70
7502;DHT22;3792;47.740;7.606;2024-03-02T12:30:42;15.30;92.40
7502;DHT22;3792;47.740;7.606;2024-03-02T12:33:11;15.30;92.20
7502;DHT22;3792;47.740;7.606;2024-03-02T12:35:38;15.20;92.10
7502;DHT22;3792;47.740;7.606;2024-03-02T12:38:07;15.20;93.10
7502;DHT22;3792;47.740;7.606;2024-03-02T12:40:34;15.30;93.10
7502;DHT22;3792;47.740;7.606;2024-03-02T12:43:03;15.40;92.20
7502;DHT22;3792;47.740;7.606;2024-03-02T12:45:31;15.30;91.80
7502;DHT22;3792;47.740;7.606;2024-03-02T12:48:00;15.40;92.20
7502;DHT22;3792;47.740;7.606;2024-03-02T12:50:28;15.60;91.90
7502;DHT22;3792;47.740;7.606;2024-03-02T12:52:55;15.80;92.20
7502;DHT22;3792;47.740;7.606;2024-03-02T12:55:23;15.70;90.90
7502;DHT22;3792;47.740;7.606;2024-03-02T12:57:50;15.60;91.50
7502;DHT22;3792;47.740;7.606;2024-03-02T13:00:19;15.50;90.80
7502;DHT22;3792;47.740;7.606;2024-03-02T13:02:48;15.30;91.70
7502;DHT22;3792;47.740;7.606;2024-03-02T13:05:16;15.10;91.10
7502;DHT22;3792;47.740;7.606;2024-03-02T13:07:43;15.10;91.50
7502;DHT22;3792;47.740;7.606;2024-03-02T13:10:12;15.30;91.90
7502;DHT22;3792;47.740;7.606;2024-03-02T13:12:39;15.30;91.20
7502;DHT22;3792;47.740;7.606;2024-03-02T13:15:08;15.40;91.40
7502;DHT22;3792;47.740;7.606;2024-03-02T13:17:36;15.40;91.40
7502;DHT22;3792;47.740;7.606;2024-03-02T13:20:06;15.60;92.00
7502;DHT22;3792;47.740;7.606;2024-03-02T13:22:36;15.50;91.90
7502;DHT22;3792;47.740;7.606;2024-03-02T13:25:04;15.40;92.00
7502;DHT22;3792;47.740;7.606;2024-03-02T13:27:31;15.30;92.10
7502;DHT22;3792;47.740;7.606;2024-03-02T13:29:58;15.30;92.10
7502;DHT22;3792;47.740;7.606;2024-03-02T13:32:25;15.30;91.80
7502;DHT22;3792;47.740;7.606;2024-03-02T13:34:52;15.20;90.60
7502;DHT22;3792;47.740;7.606;2024-03-02T13:37:21;15.20;90.10
7502;DHT22;3792;47.740;7.606;2024-03-02T13:39:48;15.10;91.00
7502;DHT22;3792;47.740;7.606;2024-03-02T13:42:15;15.00;92.00
7502;DHT22;3792;47.740;7.606;2024-03-02T13:44:44;14.90;91.40
7502;DHT22;3792;47.740;7.606;2024-03-02T13:47:13;14.80;92.20
7502;DHT22;3792;47.740;7.606;2024-03-02T13:49:40;14.70;92.50
7502;DHT22;3792;47.740;7.606;2024-03-02T13:52:10;14.70;93.90
7502;DHT22;3792;47.740;7.606;2024-03-02T13:54:40;14.70;94.80
7502;DHT22;3792;47.740;7.606;2024-03-02T13:57:08;14.70;95.10
7502;DHT22;3792;47.740;7.606;2024-03-02T13:59:36;14.80;95.50
7502;DHT22;3792;47.740;7.606;2024-03-02T14:02:05;14.60;95.90
7502;DHT22;3792;47.740;7.606;2024-03-02T14:04:32;14.60;96.40
7502;DHT22;3792;47.740;7.606;2024-03-02T14:07:00;14.50;97.20
7502;DHT22;3792;47.740;7.606;2024-03-02T14:09:27;14.40;97.70
7502;DHT22;3792;47.740;7.606;2024-03-02T14:11:56;14.30;97.90
7502;DHT22;3792;47.740;7.606;2024-03-02T14:14:23;14.20;98.40
7502;DHT22;3792;47.740;7.606;2024-03-02T14:16:50;14.10;98.60
7502;DHT22;3792;47.740;7.606;2024-03-02T14:19:18;14.10;98.80
7502;DHT22;3792;47.740;7.606;2024-03-02T14:21:45;14.00;98.90
7502;DHT22;3792;47.740;7.606;2024-03-02T14:24:13;13.90;99.30
7502;DHT22;3792;47.740;7.606;2024-03-02T14:26:40;13.90;99.80
7502;DHT22;3792;47.740;7.606;2024-03-02T14:29:08;13.90;99.70
7502;DHT22;3792;47.740;7.606;2024-03-02T14:31:37;13.90;99.80
7502;DHT22;3792;47.740;7.606;2024-03-02T14:34:04;13.80;99.90
7502;DHT22;3792;47.740;7.606;2024-03-02T14:36:31;13.80;99.90
7502;DHT22;3792;47.740;7.606;2024-03-02T14:38:58;13.80;99.90
7502;DHT22;3792;47.740;7.606;2024-03-02T14:41:25;13.80;99.90
7502;DHT22;3792;47.740;7.606;2024-03-02T14:43:52;13.70;99.90
7502;DHT22;3792;47.740;7.606;2024-03-02T14:46:20;13.80;99.80
7502;DHT22;3792;47.740;7.606;2024-03-02T14:48:47;13.80;99.80
7502;DHT22;3792;47.740;7.606;2024-03-02T14:51:14;13.80;99.50
7502;DHT22;3792;47.740;7.606;2024-03-02T14:53:41;13.90;99.30
7502;DHT22;3792;47.740;7.606;2024-03-02T14:56:08;13.90;99.00
7502;DHT22;3792;47.740;7.606;2024-03-02T14:58:35;13.90;98.80
7502;DHT22;3792;47.740;7.606;2024-03-02T15:01:03;14.00;98.50
7502;DHT22;3792;47.740;7.606;2024-03-02T15:03:32;14.10;98.20
7502;DHT22;3792;47.740;7.606;2024-03-02T15:05:59;14.30;98.60
7502;DHT22;3792;47.740;7.606;2024-03-02T15:08:27;14.50;97.70
7502;DHT22;3792;47.740;7.606;2024-03-02T15:10:54;14.80;97.80
7502;DHT22;3792;47.740;7.606;2024-03-02T15:13:23;15.00;97.30
7502;DHT22;3792;47.740;7.606;2024-03-02T15:15:51;15.10;97.20
7502;DHT22;3792;47.740;7.606;2024-03-02T15:18:18;15.40;96.90
7502;DHT22;3792;47.740;7.606;2024-03-02T15:20:46;15.80;96.50
7502;DHT22;3792;47.740;7.606;2024-03-02T15:23:14;15.80;96.50
7502;DHT22;3792;47.740;7.606;2024-03-02T15:25:41;15.70;96.40
7502;DHT22;3792;47.740;7.606;2024-03-02T15:28:08;15.40;96.30
7502;DHT22;3792;47.740;7.606;2024-03-02T15:30:35;15.30;96.40
7502;DHT22;3792;47.740;7.606;2024-03-02T15:33:03;15.10;96.30
7502;DHT22;3792;47.740;7.606;2024-03-02T15:35:30;15.10;96.50
7502;DHT22;3792;47.740;7.606;2024-03-02T15:37:58;15.00;94.90
7502;DHT22;3792;47.740;7.606;2024-03-02T15:40:25;14.90;95.00
7502;DHT22;3792;47.740;7.606;2024-03-02T15:42:54;14.90;95.30
7502;DHT22;3792;47.740;7.606;2024-03-02T15:45:21;14.90;96.20
7502;DHT22;3792;47.740;7.606;2024-03-02T15:47:48;14.80;96.80
7502;DHT22;3792;47.740;7.606;2024-03-02T15:50:15;14.70;97.10
7502;DHT22;3792;47.740;7.606;2024-03-02T15:52:42;14.60;97.00
7502;DHT22;3792;47.740;7.606;2024-03-02T15:55:12;14.50;97.20
7502;DHT22;3792;47.740;7.606;2024-03-02T15:57:39;14.40;97.50
7502;DHT22;3792;47.740;7.606;2024-03-02T16:00:07;14.30;97.50
7502;DHT22;3792;47.740;7.606;2024-03-02T16:02:34;14.30;97.70
7502;DHT22;3792;47.740;7.606;2024-03-02T16:05:01;14.20;97.60
7502;DHT22;3792;47.740;7.606;2024-03-02T16:07:29;14.20;97.70
7502;DHT22;3792;47.740;7.606;2024-03-02T16:09:57;14.20;97.50
7502;DHT22;3792;47.740;7.606;2024-03-02T16:12:30;14.10;97.40
7502;DHT22;3792;47.740;7.606;2024-03-02T16:14:57;14.10;97.60
7502;DHT22;3792;47.740;7.606;2024-03-02T16:17:24;14.20;97.80